createdAt,value
2019-05-17T00:00:50.504Z,12.70
2019-05-17T00:03:20.958Z,12.70
2019-05-17T00:05:51.261Z,12.60
2019-05-17T00:08:31.945Z,12.70
2019-05-17T00:10:56.942Z,12.60
2019-05-17T00:13:26.937Z,12.50
2019-05-17T00:15:57.595Z,12.60
2019-05-17T00:18:28.326Z,12.50
2019-05-17T00:20:58.951Z,12.50
2019-05-17T00:23:29.422Z,12.50
2019-05-17T00:25:59.758Z,12.40
2019-05-17T00:28:30.428Z,12.50
2019-05-17T00:31:01.077Z,12.50
2019-05-17T00:33:31.437Z,12.50
2019-05-17T00:36:20.883Z,12.60
2019-05-17T00:38:51.760Z,12.60
2019-05-17T00:41:22.121Z,12.60
2019-05-17T00:43:52.575Z,12.60
2019-05-17T00:46:23.174Z,12.60
2019-05-17T00:48:53.602Z,12.60
2019-05-17T00:51:24.326Z,12.60
2019-05-17T00:53:56.243Z,12.60
2019-05-17T00:56:26.770Z,12.50
2019-05-17T00:58:57.057Z,12.50
2019-05-17T01:01:27.495Z,12.50
2019-05-17T01:03:57.872Z,12.50
2019-05-17T01:06:28.382Z,12.60
2019-05-17T01:09:01.859Z,12.60
2019-05-17T01:11:31.342Z,12.60
2019-05-17T01:14:01.793Z,12.50
2019-05-17T01:16:32.239Z,12.50
2019-05-17T01:19:03.266Z,12.50
2019-05-17T01:21:36.560Z,12.60
2019-05-17T01:24:06.840Z,12.50
2019-05-17T01:26:37.525Z,12.50
2019-05-17T01:29:08.148Z,12.60
2019-05-17T01:31:38.803Z,12.50
2019-05-17T01:34:09.209Z,12.50
2019-05-17T01:36:39.815Z,12.60
2019-05-17T01:39:17.684Z,12.60
2019-05-17T01:41:42.656Z,12.60
2019-05-17T01:44:13.032Z,12.60
2019-05-17T01:46:43.394Z,12.60
2019-05-17T01:49:16.283Z,12.70
2019-05-17T01:51:46.507Z,12.70
2019-05-17T01:54:17.660Z,12.60
2019-05-17T01:56:48.211Z,12.70
2019-05-17T01:59:19.008Z,12.60
2019-05-17T02:01:51.077Z,12.60
2019-05-17T02:04:21.407Z,12.60
2019-05-17T02:06:51.865Z,12.60
2019-05-17T02:09:34.782Z,12.60
2019-05-17T02:11:54.480Z,12.50
2019-05-17T02:14:26.730Z,12.50
2019-05-17T02:16:57.401Z,12.50
2019-05-17T02:19:28.200Z,12.50
2019-05-17T02:21:58.570Z,12.50
2019-05-17T02:24:28.911Z,12.40
2019-05-17T02:26:59.267Z,12.40
2019-05-17T02:29:32.028Z,12.40
2019-05-17T02:32:03.821Z,12.50
2019-05-17T02:34:35.044Z,12.50
2019-05-17T02:37:05.805Z,12.50
2019-05-17T02:39:52.480Z,12.50
2019-05-17T02:42:08.307Z,12.50
2019-05-17T02:44:39.082Z,12.50
2019-05-17T02:47:09.512Z,12.50
2019-05-17T02:49:42.482Z,12.40
2019-05-17T02:52:12.612Z,12.40
2019-05-17T02:54:43.858Z,12.40
2019-05-17T02:57:14.600Z,12.40
2019-05-17T02:59:45.316Z,12.40
2019-05-17T03:02:16.149Z,12.40
2019-05-17T03:04:46.795Z,12.40
2019-05-17T03:07:17.237Z,12.40
2019-05-17T03:09:47.964Z,12.40
2019-05-17T03:12:18.597Z,12.40
2019-05-17T03:14:49.012Z,12.40
2019-05-17T03:17:22.698Z,12.40
2019-05-17T03:19:52.952Z,12.40
2019-05-17T03:22:23.917Z,12.40
2019-05-17T03:24:55.286Z,12.40
2019-05-17T03:27:25.693Z,12.40
2019-05-17T03:29:56.199Z,12.40
2019-05-17T03:32:27.404Z,12.40
2019-05-17T03:34:58.213Z,12.40
2019-05-17T03:37:36.682Z,12.40
2019-05-17T03:40:02.949Z,12.40
2019-05-17T03:42:33.881Z,12.40
2019-05-17T03:45:04.352Z,12.50
2019-05-17T03:47:34.717Z,12.50
2019-05-17T03:50:05.327Z,12.50
2019-05-17T03:52:35.676Z,12.40
2019-05-17T03:55:08.778Z,12.50
2019-05-17T03:57:39.143Z,12.50
2019-05-17T04:00:13.092Z,12.40
2019-05-17T04:02:44.399Z,12.40
2019-05-17T04:05:15.019Z,12.50
2019-05-17T04:07:45.362Z,12.50
2019-05-17T04:10:16.202Z,12.60
2019-05-17T04:12:46.881Z,12.60
2019-05-17T04:15:17.854Z,12.50
2019-05-17T04:17:48.312Z,12.60
2019-05-17T04:20:18.680Z,12.70
2019-05-17T04:23:03.813Z,12.60
2019-05-17T04:25:33.813Z,12.60
2019-05-17T04:28:04.319Z,12.60
2019-05-17T04:30:34.670Z,12.60
2019-05-17T04:33:05.059Z,12.60
2019-05-17T04:35:35.376Z,12.60
2019-05-17T04:38:05.852Z,12.50
2019-05-17T04:40:37.147Z,12.40
2019-05-17T04:43:07.487Z,12.50
2019-05-17T04:45:38.510Z,12.60
2019-05-17T04:48:08.859Z,12.60
2019-05-17T04:50:42.840Z,12.70
2019-05-17T04:53:13.438Z,12.70
2019-05-17T04:55:44.436Z,12.80
2019-05-17T04:58:15.113Z,12.70
2019-05-17T05:00:45.967Z,12.70
2019-05-17T05:03:16.760Z,12.80
2019-05-17T05:05:47.709Z,12.80
2019-05-17T05:08:18.084Z,13.00
2019-05-17T05:10:48.739Z,13.10
2019-05-17T05:13:19.118Z,13.20
2019-05-17T05:15:52.023Z,13.20
2019-05-17T05:18:22.287Z,13.30
2019-05-17T05:20:53.143Z,13.30
2019-05-17T05:23:24.019Z,13.40
2019-05-17T05:25:54.603Z,13.40
2019-05-17T05:28:24.946Z,13.50
2019-05-17T05:30:55.376Z,13.60
2019-05-17T05:33:25.777Z,13.70
2019-05-17T05:35:56.121Z,13.60
2019-05-17T05:38:26.719Z,13.50
2019-05-17T05:40:57.672Z,13.80
2019-05-17T05:43:28.040Z,13.90
2019-05-17T05:45:58.479Z,14.00
2019-05-17T05:48:29.395Z,14.00
2019-05-17T05:51:03.049Z,14.10
2019-05-17T05:53:32.706Z,14.20
2019-05-17T05:56:03.710Z,14.10
2019-05-17T05:58:34.181Z,14.10
2019-05-17T06:01:04.949Z,14.10
2019-05-17T06:03:35.296Z,14.10
2019-05-17T06:06:05.650Z,14.10
2019-05-17T06:08:36.176Z,14.20
2019-05-17T06:11:06.535Z,14.30
2019-05-17T06:13:36.883Z,14.20
2019-05-17T06:16:07.240Z,14.20
2019-05-17T06:18:37.597Z,14.30
2019-05-17T06:21:07.989Z,14.30
2019-05-17T06:23:38.337Z,14.20
2019-05-17T06:26:08.787Z,14.10
2019-05-17T06:28:39.435Z,14.10
2019-05-17T06:31:10.199Z,14.10
2019-05-17T06:33:42.153Z,14.10
2019-05-17T06:36:13.653Z,14.10
2019-05-17T06:38:44.343Z,14.00
2019-05-17T06:41:15.177Z,14.00
2019-05-17T06:43:45.649Z,14.00
2019-05-17T06:46:16.327Z,14.10
2019-05-17T06:48:46.697Z,14.20
2019-05-17T06:51:17.179Z,14.10
2019-05-17T06:53:47.525Z,14.20
2019-05-17T06:56:17.933Z,14.30
2019-05-17T06:58:48.848Z,14.20
2019-05-17T07:01:21.753Z,14.30
2019-05-17T07:03:52.612Z,14.30
2019-05-17T07:06:24.922Z,13.90
2019-05-17T07:08:55.447Z,13.90
2019-05-17T07:11:25.813Z,13.80
2019-05-17T07:13:56.978Z,13.70
2019-05-17T07:16:27.410Z,13.80
2019-05-17T07:18:59.736Z,13.60
2019-05-17T07:21:29.890Z,13.50
2019-05-17T07:24:00.289Z,13.60
2019-05-17T07:26:30.956Z,13.60
2019-05-17T07:29:01.365Z,13.60
2019-05-17T07:31:31.808Z,13.70
2019-05-17T07:34:02.229Z,13.80
2019-05-17T07:36:33.271Z,14.10
2019-05-17T07:39:05.252Z,14.50
2019-05-17T07:41:35.684Z,14.70
2019-05-17T07:44:06.709Z,14.80
2019-05-17T07:46:37.090Z,15.00
2019-05-17T07:49:07.448Z,15.20
2019-05-17T07:51:43.518Z,15.40
2019-05-17T07:54:13.965Z,15.60
2019-05-17T07:56:44.376Z,15.80
2019-05-17T07:59:14.712Z,16.00
2019-05-17T08:01:45.201Z,16.10
2019-05-17T08:04:15.659Z,15.80
2019-05-17T08:06:46.085Z,15.80
2019-05-17T08:09:16.499Z,15.90
2019-05-17T08:11:46.962Z,15.70
2019-05-17T08:14:27.514Z,15.50
2019-05-17T08:16:50.255Z,15.70
2019-05-17T08:19:20.990Z,15.60
2019-05-17T08:21:59.687Z,15.50
2019-05-17T08:24:30.399Z,15.40
2019-05-17T08:27:00.811Z,15.50
2019-05-17T08:29:31.183Z,15.60
2019-05-17T08:32:03.813Z,15.80
2019-05-17T08:34:36.277Z,15.70
2019-05-17T08:37:09.400Z,15.60
2019-05-17T08:39:39.974Z,15.70
2019-05-17T08:42:10.667Z,15.50
2019-05-17T08:44:41.097Z,15.70
2019-05-17T08:47:11.518Z,15.60
2019-05-17T08:49:46.307Z,15.70
2019-05-17T08:52:16.676Z,15.70
2019-05-17T08:54:52.924Z,15.70
2019-05-17T08:57:30.429Z,15.80
2019-05-17T09:00:01.281Z,15.90
2019-05-17T09:02:40.471Z,16.20
2019-05-17T09:05:13.030Z,15.90
2019-05-17T09:07:52.745Z,15.80
2019-05-17T09:10:23.125Z,15.90
2019-05-17T09:12:53.868Z,16.00
2019-05-17T09:15:24.306Z,15.90
2019-05-17T09:17:55.085Z,16.10
2019-05-17T09:20:25.541Z,16.00
2019-05-17T09:22:55.916Z,16.10
2019-05-17T09:25:26.581Z,16.00
2019-05-17T09:27:57.294Z,16.00
2019-05-17T09:30:31.152Z,16.00
2019-05-17T09:33:01.228Z,16.00
2019-05-17T09:35:36.022Z,16.30
2019-05-17T09:38:11.424Z,16.40
2019-05-17T09:40:42.359Z,16.60
2019-05-17T09:43:17.471Z,16.80
2019-05-17T09:45:50.436Z,16.70
2019-05-17T09:48:26.643Z,16.70
2019-05-17T09:50:59.733Z,16.80
2019-05-17T09:53:32.185Z,16.90
2019-05-17T09:56:02.626Z,16.80
2019-05-17T09:58:33.020Z,16.50
2019-05-17T10:01:03.442Z,16.40
2019-05-17T10:03:33.905Z,16.30
2019-05-17T10:06:12.493Z,16.20
2019-05-17T10:08:42.897Z,16.10
2019-05-17T10:11:13.534Z,16.10
2019-05-17T10:13:44.622Z,16.00
2019-05-17T10:16:15.018Z,16.10
2019-05-17T10:18:45.570Z,16.00
2019-05-17T10:21:16.099Z,16.00
2019-05-17T10:23:46.608Z,16.10
2019-05-17T10:26:19.746Z,16.20
2019-05-17T10:28:51.633Z,16.20
2019-05-17T10:31:22.288Z,16.60
2019-05-17T10:33:58.194Z,16.60
2019-05-17T10:36:29.354Z,16.40
2019-05-17T10:38:59.780Z,16.40
2019-05-17T10:41:30.261Z,16.50
2019-05-17T10:44:01.573Z,16.50
2019-05-17T10:46:32.585Z,16.60
2019-05-17T10:49:04.267Z,17.00
2019-05-17T10:51:35.000Z,16.80
2019-05-17T10:54:06.146Z,16.90
2019-05-17T10:56:36.959Z,16.80
2019-05-17T10:59:09.823Z,16.80
2019-05-17T11:01:40.147Z,16.70
2019-05-17T11:04:10.617Z,16.80
2019-05-17T11:06:41.018Z,16.50
2019-05-17T11:09:11.447Z,16.40
2019-05-17T11:11:41.912Z,16.40
2019-05-17T11:14:12.934Z,16.30
2019-05-17T11:16:43.712Z,16.30
2019-05-17T11:19:14.204Z,16.20
2019-05-17T11:21:45.205Z,16.10
2019-05-17T11:24:15.946Z,16.20
2019-05-17T11:26:46.722Z,16.30
2019-05-17T11:29:17.150Z,16.40
2019-05-17T11:31:47.984Z,16.20
2019-05-17T11:34:18.840Z,16.20
2019-05-17T11:36:50.384Z,16.10
2019-05-17T11:39:21.195Z,16.20
2019-05-17T11:41:51.572Z,16.10
2019-05-17T11:44:22.062Z,16.10
2019-05-17T11:46:53.715Z,16.20
2019-05-17T11:49:25.270Z,16.20
2019-05-17T11:51:56.699Z,16.20
2019-05-17T11:54:27.635Z,16.30
2019-05-17T11:57:02.696Z,16.20
2019-05-17T11:59:33.165Z,16.30
2019-05-17T12:02:04.013Z,16.50
2019-05-17T12:04:34.474Z,16.50
2019-05-17T12:07:04.951Z,16.60
2019-05-17T12:09:37.679Z,16.70
2019-05-17T12:12:07.821Z,16.80
2019-05-17T12:14:38.215Z,16.80
2019-05-17T12:17:18.355Z,16.80
2019-05-17T12:19:50.452Z,16.80
2019-05-17T12:22:20.853Z,16.70
2019-05-17T12:24:51.385Z,16.70
2019-05-17T12:27:21.847Z,17.00
2019-05-17T12:30:00.369Z,17.20
2019-05-17T12:32:33.595Z,17.30
2019-05-17T12:35:07.036Z,17.10
2019-05-17T12:37:42.381Z,17.30
2019-05-17T12:40:12.521Z,17.50
2019-05-17T12:42:44.008Z,17.50
2019-05-17T12:45:14.924Z,17.30
2019-05-17T12:47:46.190Z,17.30
2019-05-17T12:50:16.839Z,17.10
2019-05-17T12:52:47.651Z,17.10
2019-05-17T12:55:19.565Z,17.20
2019-05-17T12:57:50.073Z,17.10
2019-05-17T13:00:22.042Z,17.30
2019-05-17T13:02:52.982Z,17.80
2019-05-17T13:05:23.687Z,18.10
2019-05-17T13:07:55.564Z,18.10
2019-05-17T13:10:26.223Z,18.10
2019-05-17T13:12:57.167Z,17.90
2019-05-17T13:15:27.871Z,17.90
2019-05-17T13:17:59.056Z,17.80
2019-05-17T13:20:29.514Z,17.60
2019-05-17T13:23:04.451Z,17.90
2019-05-17T13:25:34.911Z,18.70
2019-05-17T13:28:06.719Z,19.20
2019-05-17T13:30:37.395Z,19.30
2019-05-17T13:33:07.801Z,19.40
2019-05-17T13:35:38.416Z,19.30
2019-05-17T13:38:08.869Z,19.30
2019-05-17T13:40:40.175Z,19.20
2019-05-17T13:43:10.592Z,19.50
2019-05-17T13:45:43.897Z,19.70
2019-05-17T13:48:13.404Z,19.50
2019-05-17T13:50:44.171Z,19.30
2019-05-17T13:53:14.604Z,19.40
2019-05-17T13:55:51.804Z,19.70
2019-05-17T13:58:22.567Z,20.30
2019-05-17T14:00:53.311Z,21.00
2019-05-17T14:03:23.725Z,21.00
2019-05-17T14:05:54.329Z,22.00
2019-05-17T14:08:24.668Z,21.50
2019-05-17T14:10:55.277Z,20.90
2019-05-17T14:13:25.765Z,20.50
2019-05-17T14:15:56.419Z,21.60
2019-05-17T14:18:28.866Z,21.90
2019-05-17T14:20:59.904Z,21.40
2019-05-17T14:23:30.305Z,20.90
2019-05-17T14:26:00.912Z,20.60
2019-05-17T14:28:31.315Z,20.30
2019-05-17T14:31:01.807Z,20.20
2019-05-17T14:33:32.500Z,21.10
2019-05-17T14:36:02.855Z,22.80
2019-05-17T14:38:33.258Z,23.80
2019-05-17T14:41:07.813Z,24.00
2019-05-17T14:43:36.052Z,24.00
2019-05-17T14:46:06.425Z,23.10
2019-05-17T14:48:37.504Z,22.00
2019-05-17T14:51:08.239Z,21.30
2019-05-17T14:53:38.611Z,21.00
2019-05-17T14:56:09.021Z,20.40
2019-05-17T14:58:39.639Z,20.30
2019-05-17T15:01:12.065Z,20.20
2019-05-17T15:03:42.445Z,20.10
2019-05-17T15:06:13.450Z,20.20
2019-05-17T15:08:43.905Z,20.30
2019-05-17T15:11:14.649Z,20.10
2019-05-17T15:13:45.086Z,20.10
2019-05-17T15:16:15.414Z,19.80
2019-05-17T15:18:45.859Z,19.90
2019-05-17T15:21:16.856Z,19.60
2019-05-17T15:23:47.321Z,19.50
2019-05-17T15:26:17.729Z,19.50
2019-05-17T15:28:48.133Z,19.60
2019-05-17T15:31:18.858Z,19.60
2019-05-17T15:33:49.593Z,19.80
2019-05-17T15:36:19.933Z,19.80
2019-05-17T15:38:50.770Z,20.00
2019-05-17T15:41:21.271Z,20.20
2019-05-17T15:43:51.716Z,20.60
2019-05-17T15:46:22.066Z,20.90
2019-05-17T15:48:52.716Z,20.80
2019-05-17T15:51:23.224Z,20.40
2019-05-17T15:53:53.626Z,20.10
2019-05-17T15:56:24.631Z,19.90
2019-05-17T15:58:54.960Z,19.90
2019-05-17T16:01:26.073Z,19.90
2019-05-17T16:03:59.344Z,19.90
2019-05-17T16:06:30.457Z,19.90
2019-05-17T16:09:01.228Z,20.10
2019-05-17T16:11:31.653Z,20.10
2019-05-17T16:14:02.004Z,19.90
2019-05-17T16:16:32.792Z,19.80
2019-05-17T16:19:03.573Z,19.70
2019-05-17T16:21:34.531Z,19.70
2019-05-17T16:24:05.277Z,19.70
2019-05-17T16:26:35.614Z,19.70
2019-05-17T16:29:05.979Z,19.60
2019-05-17T16:31:36.406Z,19.50
2019-05-17T16:34:07.160Z,19.40
2019-05-17T16:36:37.696Z,19.60
2019-05-17T16:39:08.728Z,19.70
2019-05-17T16:41:39.423Z,19.70
2019-05-17T16:44:09.887Z,19.60
2019-05-17T16:46:40.379Z,19.40
2019-05-17T16:49:11.115Z,19.30
2019-05-17T16:51:41.474Z,19.40
2019-05-17T16:54:12.154Z,19.40
2019-05-17T16:56:42.517Z,19.30
2019-05-17T16:59:13.025Z,19.30
2019-05-17T17:01:43.449Z,19.30
2019-05-17T17:04:13.977Z,19.30
2019-05-17T17:06:44.353Z,19.20
2019-05-17T17:09:14.799Z,19.10
2019-05-17T17:11:45.768Z,19.00
2019-05-17T17:14:18.423Z,19.00
2019-05-17T17:16:48.961Z,18.80
2019-05-17T17:19:19.712Z,18.70
2019-05-17T17:21:50.459Z,18.70
2019-05-17T17:24:21.599Z,18.60
2019-05-17T17:26:52.014Z,18.60
2019-05-17T17:29:22.563Z,18.50
2019-05-17T17:31:52.945Z,18.60
2019-05-17T17:34:23.879Z,18.60
2019-05-17T17:36:54.481Z,18.50
2019-05-17T17:39:25.153Z,18.60
2019-05-17T17:41:55.546Z,18.40
2019-05-17T17:44:38.276Z,18.40
2019-05-17T17:47:08.637Z,18.30
2019-05-17T17:49:39.841Z,18.20
2019-05-17T17:52:10.363Z,18.20
2019-05-17T17:54:41.398Z,18.10
2019-05-17T17:57:11.842Z,18.20
2019-05-17T17:59:42.530Z,18.20
2019-05-17T18:02:13.269Z,18.20
2019-05-17T18:04:44.078Z,18.20
2019-05-17T18:07:14.488Z,18.10
2019-05-17T18:09:44.839Z,18.10
2019-05-17T18:12:15.207Z,18.00
2019-05-17T18:14:45.588Z,18.00
2019-05-17T18:17:16.239Z,17.90
2019-05-17T18:19:46.895Z,17.90
2019-05-17T18:22:17.546Z,17.80
2019-05-17T18:24:48.438Z,17.80
2019-05-17T18:27:18.879Z,17.80
2019-05-17T18:29:49.281Z,17.80
2019-05-17T18:32:20.215Z,17.80
2019-05-17T18:34:51.017Z,17.70
2019-05-17T18:37:21.498Z,17.70
2019-05-17T18:39:51.840Z,17.60
2019-05-17T18:42:23.475Z,17.60
2019-05-17T18:44:53.904Z,17.60
2019-05-17T18:47:24.752Z,17.60
2019-05-17T18:49:55.536Z,17.60
2019-05-17T18:52:25.974Z,17.60
2019-05-17T18:54:56.383Z,17.50
2019-05-17T18:57:26.793Z,17.50
2019-05-17T18:59:57.667Z,17.40
2019-05-17T19:02:28.015Z,17.40
2019-05-17T19:04:58.884Z,17.40
2019-05-17T19:07:29.541Z,17.30
2019-05-17T19:10:00.077Z,17.30
2019-05-17T19:12:30.420Z,17.20
2019-05-17T19:15:00.909Z,17.20
2019-05-17T19:17:31.323Z,17.20
2019-05-17T19:20:01.703Z,17.30
2019-05-17T19:22:32.049Z,17.30
2019-05-17T19:25:02.506Z,17.30
2019-05-17T19:27:33.498Z,17.30
2019-05-17T19:30:04.925Z,17.30
2019-05-17T19:32:35.293Z,17.20
2019-05-17T19:35:06.817Z,17.20
2019-05-17T19:37:50.517Z,17.20
2019-05-17T19:40:21.673Z,17.20
2019-05-17T19:42:52.225Z,17.20
2019-05-17T19:45:22.867Z,17.20
2019-05-17T19:47:53.651Z,17.20
2019-05-17T19:50:24.073Z,17.10
2019-05-17T19:52:54.665Z,17.10
2019-05-17T19:55:26.047Z,17.10
2019-05-17T19:57:56.824Z,17.10
2019-05-17T20:00:27.478Z,17.00
2019-05-17T20:02:57.847Z,17.00
2019-05-17T20:05:28.297Z,17.00
2019-05-17T20:07:59.021Z,17.00
2019-05-17T20:10:29.496Z,17.00
2019-05-17T20:12:59.913Z,16.90
2019-05-17T20:15:34.591Z,16.90
2019-05-17T20:18:03.180Z,16.80
2019-05-17T20:20:33.544Z,16.80
2019-05-17T20:23:04.212Z,16.80
2019-05-17T20:25:34.624Z,16.80
2019-05-17T20:28:05.194Z,16.80
2019-05-17T20:30:35.892Z,16.80
2019-05-17T20:33:06.256Z,16.80
2019-05-17T20:35:36.761Z,16.80
2019-05-17T20:38:07.138Z,16.80
2019-05-17T20:40:37.806Z,16.70
2019-05-17T20:43:08.401Z,16.60
2019-05-17T20:45:38.735Z,16.60
2019-05-17T20:48:09.334Z,16.60
2019-05-17T20:50:39.718Z,16.50
2019-05-17T20:53:18.431Z,16.50
2019-05-17T20:55:42.626Z,16.40
2019-05-17T20:58:13.706Z,16.40
2019-05-17T21:00:44.556Z,16.40
2019-05-17T21:03:14.937Z,16.40
2019-05-17T21:05:45.348Z,16.30
2019-05-17T21:08:16.158Z,16.30
2019-05-17T21:10:46.507Z,16.30
2019-05-17T21:13:17.157Z,16.30
2019-05-17T21:15:48.318Z,16.30
2019-05-17T21:18:18.754Z,16.20
2019-05-17T21:20:49.134Z,16.20
2019-05-17T21:23:19.563Z,16.20
2019-05-17T21:25:49.990Z,16.20
2019-05-17T21:28:20.536Z,16.20
2019-05-17T21:30:50.924Z,16.10
2019-05-17T21:33:21.360Z,16.10
2019-05-17T21:35:51.775Z,16.00
2019-05-17T21:38:22.443Z,15.90
2019-05-17T21:40:52.814Z,15.90
2019-05-17T21:43:24.228Z,15.90
2019-05-17T21:46:04.115Z,15.90
2019-05-17T21:48:33.718Z,15.90
2019-05-17T21:51:04.421Z,15.80
2019-05-17T21:53:35.041Z,15.80
2019-05-17T21:56:05.746Z,15.80
2019-05-17T21:58:36.105Z,15.70
2019-05-17T22:01:18.320Z,15.70
2019-05-17T22:03:49.469Z,15.80
2019-05-17T22:06:19.986Z,15.80
2019-05-17T22:08:51.075Z,15.70
2019-05-17T22:11:21.697Z,15.70
2019-05-17T22:13:52.077Z,15.70
2019-05-17T22:16:22.507Z,15.70
2019-05-17T22:18:53.190Z,15.70
2019-05-17T22:21:23.569Z,15.70
2019-05-17T22:23:53.958Z,15.70
2019-05-17T22:26:24.616Z,15.70
2019-05-17T22:28:54.959Z,15.70
2019-05-17T22:31:25.369Z,15.70
2019-05-17T22:33:56.166Z,15.70
2019-05-17T22:36:26.926Z,15.70
2019-05-17T22:38:57.388Z,15.70
2019-05-17T22:41:27.817Z,15.70
2019-05-17T22:44:01.619Z,15.80
2019-05-17T22:46:35.921Z,15.80
2019-05-17T22:49:12.540Z,15.90
2019-05-17T22:51:43.223Z,15.90
2019-05-17T22:54:14.345Z,15.90
2019-05-17T22:56:44.761Z,15.90
2019-05-17T22:59:15.139Z,15.90
2019-05-17T23:01:45.569Z,15.90
2019-05-17T23:04:15.972Z,15.90
2019-05-17T23:06:46.637Z,15.90
2019-05-17T23:09:17.611Z,15.80
2019-05-17T23:11:47.981Z,15.80
2019-05-17T23:14:18.631Z,15.80
2019-05-17T23:16:51.962Z,15.70
2019-05-17T23:19:21.338Z,15.70
2019-05-17T23:21:51.737Z,15.60
2019-05-17T23:24:22.218Z,15.60
2019-05-17T23:26:53.262Z,15.60
2019-05-17T23:29:23.616Z,15.60
2019-05-17T23:31:53.982Z,15.50
2019-05-17T23:34:24.367Z,15.50
2019-05-17T23:36:54.776Z,15.40
2019-05-17T23:39:25.148Z,15.30
2019-05-17T23:41:55.525Z,15.20
2019-05-17T23:44:25.929Z,15.20
2019-05-17T23:47:06.724Z,15.10
2019-05-17T23:49:29.265Z,15.00
2019-05-17T23:51:59.995Z,14.90
2019-05-17T23:54:30.507Z,14.80
2019-05-17T23:57:01.318Z,14.70
2019-05-17T23:59:31.703Z,14.70
